Terminal Aerodrome Forecast
Issued by NWS Twin Cities, MN

Home | Current Version | Previous Version | Text Only | Print | Product List | Glossary On
Versions: 1 2 3 4 5 6 7 8 9 10 11 12 13 14 15 16 17 18 19 20 21 22 23 24
000
FTUS43 KMPX 271726
TAFSTC
TAF
KSTC 271726Z 2718/2818 15007KT P6SM SCT007 OVC035
     FM272100 17007KT P6SM SCT015 BKN035
     FM280200 18003KT P6SM SCT015 SCT200
     FM280800 13003KT 3SM BR SCT005 BKN100
     FM281400 14007KT P6SM SCT025 BKN250=

USA.gov is the U.S. government's official web portal to all federal, state and local government web resources and services.